Weather History for Marysville, OH

Change the Weather History Date:

Sunday, November 10, 2013

  Actual Average (KDLZ) Record (KDLZ)
Temperature  
Mean Temperature 37 °F -  
Max Temperature 47 °F 53 °F 74 °F (1975)
Min Temperature 27 °F 33 °F 13 °F (1991)
Degree Days  
Heating Degree Days 28    
Moisture  
Dew Point 29 °F    
Average Humidity 66    
Maximum Humidity 90    
Minimum Humidity 47    
Precipitation  
Precipitation 0.00 in - - ()
Sea Level Pressure  
Sea Level Pressure 30.21 in    
Wind  
Wind Speed 11 mph (WNW)    
Max Wind Speed 18 mph    
Max Gust Speed 31 mph    
Visibility 10 miles    
Events      
Averages and records for this station are not official NWS values.
T = Trace of Precipitation, MM = Missing Value Source: NWS Daily Summary

Daily Weather History Graph

Daily Weather History Graph

Search for Another Location

Airport:

Trip Planner

Search our weather history database for the weather conditions in past years. The results will help you decide how hot, cold, wet, or windy it might be!

Date:

Astronomy

Nov. 10, 2013 Rise Set
Actual Time 7:13 AM EST 5:20 PM EST
Civil Twilight 6:44 AM EST 5:49 PM EST
Nautical Twilight 6:12 AM EST 6:22 PM EST
Astronomical Twilight 5:40 AM EST 6:53 PM EST
Moon 1:26 PM EST (11/10) No Moon Set
Length of Visible Light 11h 04m
Length of Day
10h 07m
First Quarter, 55% of the Moon is Illuminated
Nov 10
First Quarter
Nov 17
Full
Nov 25
Last Quarter
Dec 2
New
Dec 9
First Quarter

Hourly Weather History & Observations

Time (EST) Temp. Windchill Dew Point Humidity Pressure Visibility Wind Dir Wind Speed Gust Speed Precip Events Conditions
12:14 AM 47.5 °F - 36.5 °F 66% 30.03 in 10.0 mi West 10.4 mph - N/A   Clear
12:34 AM 47.3 °F - 36.5 °F 66% 30.04 in 10.0 mi West 11.5 mph - N/A   Clear
12:55 AM 46.4 °F 41.5 °F 36.3 °F 68% 30.04 in 10.0 mi West 10.4 mph - N/A   Clear
1:14 AM 45.9 °F 40.8 °F 36.0 °F 68% 30.04 in 10.0 mi West 10.4 mph - N/A   Clear
1:34 AM 45.5 °F 40.8 °F 36.1 °F 70% 30.04 in 10.0 mi West 9.2 mph - N/A   Clear
1:54 AM 45.3 °F 40.1 °F 35.8 °F 69% 30.05 in 10.0 mi West 10.4 mph - N/A   Clear
2:14 AM 45.3 °F 39.7 °F 35.6 °F 69% 30.05 in 10.0 mi West 11.5 mph - N/A   Clear
2:34 AM 44.6 °F 38.4 °F 35.4 °F 70% 30.05 in 10.0 mi West 12.7 mph - N/A   Clear
2:54 AM 43.7 °F 38.1 °F 35.1 °F 72% 30.05 in 10.0 mi West 10.4 mph - N/A   Clear
3:14 AM 43.7 °F 38.1 °F 34.7 °F 71% 30.05 in 10.0 mi West 10.4 mph - N/A   Clear
3:34 AM 42.4 °F 36.5 °F 34.5 °F 74% 30.05 in 10.0 mi West 10.4 mph - N/A   Clear
3:54 AM 41.9 °F 35.9 °F 34.3 °F 75% 30.05 in 10.0 mi West 10.4 mph - N/A   Clear
4:15 AM 42.3 °F 35.9 °F 34.5 °F 74% 30.05 in 10.0 mi West 11.5 mph - N/A   Clear
4:34 AM 42.8 °F 36.2 °F 34.3 °F 72% 30.06 in 10.0 mi West 12.7 mph 21.9 mph N/A   Scattered Clouds
4:54 AM 42.4 °F 35.0 °F 34.0 °F 72% 30.07 in 10.0 mi West 15.0 mph 19.6 mph N/A   Mostly Cloudy
5:14 AM 42.1 °F 34.5 °F 32.9 °F 70% 30.08 in 10.0 mi WNW 15.0 mph 21.9 mph N/A   Clear
5:34 AM 41.9 °F 34.6 °F 32.0 °F 68% 30.08 in 10.0 mi WNW 13.8 mph 27.6 mph N/A   Clear
5:55 AM 41.0 °F 32.2 °F 31.3 °F 68% 30.09 in 10.0 mi WNW 18.4 mph 31.1 mph N/A   Clear
6:14 AM 41.0 °F 32.8 °F 28.6 °F 61% 30.11 in 10.0 mi WNW 16.1 mph 27.6 mph N/A   Clear
6:34 AM 39.7 °F 32.3 °F 27.7 °F 62% 30.12 in 10.0 mi WNW 12.7 mph 24.2 mph N/A   Scattered Clouds
6:55 AM 39.0 °F 31.4 °F 26.6 °F 61% 30.13 in 10.0 mi WNW 12.7 mph 24.2 mph N/A   Scattered Clouds
7:14 AM 38.3 °F 30.1 °F 25.7 °F 61% 30.14 in 10.0 mi WNW 13.8 mph 24.2 mph N/A   Clear
7:34 AM 38.5 °F 30.3 °F 25.9 °F 61% 30.15 in 10.0 mi WNW 13.8 mph 24.2 mph N/A   Mostly Cloudy
7:55 AM 38.7 °F 30.1 °F 26.6 °F 62% 30.16 in 10.0 mi West 15.0 mph - N/A   Overcast
8:14 AM 38.8 °F 31.2 °F 26.2 °F 61% 30.17 in 10.0 mi WNW 12.7 mph - N/A   Overcast
8:34 AM 39.2 °F 32.5 °F 25.9 °F 59% 30.19 in 10.0 mi WNW 10.4 mph 17.3 mph N/A   Overcast
8:55 AM 39.6 °F 31.3 °F 26.1 °F 58% 30.20 in 10.0 mi WNW 15.0 mph 20.7 mph N/A   Overcast
9:14 AM 39.6 °F 31.3 °F 26.2 °F 59% 30.21 in 10.0 mi WNW 15.0 mph 19.6 mph N/A   Overcast
9:35 AM 39.9 °F 31.1 °F 26.4 °F 59% 30.21 in 10.0 mi WNW 17.3 mph 23.0 mph N/A   Overcast
9:54 AM 40.5 °F 31.5 °F 27.3 °F 59% 30.22 in 10.0 mi NW 18.4 mph 23.0 mph N/A   Overcast
10:14 AM 41.2 °F 33.0 °F 27.5 °F 58% 30.22 in 10.0 mi WNW 16.1 mph - N/A   Overcast
10:34 AM 42.4 °F 35.3 °F 28.2 °F 57% 30.23 in 10.0 mi NW 13.8 mph 23.0 mph N/A   Mostly Cloudy
10:54 AM 43.5 °F 36.1 °F 27.1 °F 53% 30.24 in 10.0 mi NW 16.1 mph 23.0 mph N/A   Mostly Cloudy
11:15 AM 43.7 °F 36.0 °F 27.3 °F 53% 30.25 in 10.0 mi WNW 17.3 mph 21.9 mph N/A   Mostly Cloudy
11:34 AM 44.1 °F 36.8 °F 27.3 °F 52% 30.25 in 10.0 mi NNW 16.1 mph 21.9 mph N/A   Overcast
11:54 AM 43.7 °F 36.9 °F 27.3 °F 53% 30.25 in 10.0 mi NW 13.8 mph 20.7 mph N/A   Overcast
12:15 PM 43.9 °F 35.9 °F 25.7 °F 49% 30.26 in 10.0 mi NW 18.4 mph 24.2 mph N/A   Overcast
12:34 PM 43.9 °F 37.5 °F 26.1 °F 50% 30.25 in 10.0 mi NNW 12.7 mph 18.4 mph N/A   Overcast
12:54 PM 44.2 °F 38.8 °F 26.6 °F 50% 30.26 in 10.0 mi NNW 10.4 mph 21.9 mph N/A   Overcast
1:15 PM 44.2 °F 37.6 °F 26.8 °F 50% 30.26 in 10.0 mi NNW 13.8 mph 17.3 mph N/A   Overcast
1:34 PM 44.2 °F 38.0 °F 27.0 °F 51% 30.26 in 10.0 mi NNW 12.7 mph - N/A   Overcast
1:54 PM 44.8 °F 37.7 °F 27.0 °F 50% 30.26 in 10.0 mi NNW 16.1 mph - N/A   Overcast
2:15 PM 45.5 °F 40.3 °F 26.8 °F 48% 30.26 in 10.0 mi NNW 10.4 mph - N/A   Overcast
2:34 PM 46.0 °F 41.4 °F 27.5 °F 48% 30.26 in 10.0 mi NNW 9.2 mph - N/A   Mostly Cloudy
2:54 PM 44.6 °F 39.2 °F 27.0 °F 50% 30.26 in 10.0 mi NNW 10.4 mph 21.9 mph N/A   Mostly Cloudy
3:15 PM 46.6 °F - 27.5 °F 47% 30.27 in 10.0 mi WNW 13.8 mph 17.3 mph N/A   Mostly Cloudy
3:34 PM 46.8 °F - 27.5 °F 47% 30.28 in 10.0 mi NW 11.5 mph 18.4 mph N/A   Overcast
3:55 PM 45.0 °F 39.7 °F 26.6 °F 49% 30.28 in 10.0 mi NW 10.4 mph - N/A   Mostly Cloudy
4:14 PM 44.2 °F 39.2 °F 27.3 °F 51% 30.29 in 10.0 mi WNW 9.2 mph 16.1 mph N/A   Mostly Cloudy
4:34 PM 45.0 °F 40.1 °F 27.3 °F 50% 30.29 in 10.0 mi NW 9.2 mph - N/A   Overcast
4:55 PM 43.5 °F 38.9 °F 27.5 °F 53% 30.30 in 10.0 mi NW 8.1 mph - N/A   Mostly Cloudy
5:14 PM 43.0 °F 37.7 °F 27.5 °F 54% 30.30 in 10.0 mi NW 9.2 mph - N/A   Mostly Cloudy
5:34 PM 40.6 °F 37.5 °F 27.3 °F 59% 30.30 in 10.0 mi WNW 4.6 mph - N/A   Scattered Clouds
5:55 PM 37.8 °F 34.2 °F 27.5 °F 67% 30.30 in 10.0 mi West 4.6 mph - N/A   Clear
6:14 PM 33.4 °F 30.4 °F 27.1 °F 78% 30.30 in 10.0 mi West 3.5 mph - N/A   Clear
6:34 PM 32.9 °F 28.5 °F 27.0 °F 79% 30.30 in 10.0 mi West 4.6 mph - N/A   Clear
6:55 PM 33.4 °F 29.1 °F 27.1 °F 78% 30.31 in 10.0 mi West 4.6 mph - N/A   Clear
7:14 PM 32.0 °F 26.4 °F 26.2 °F 79% 30.32 in 10.0 mi West 5.8 mph - N/A   Clear
7:34 PM 34.5 °F 29.4 °F 27.9 °F 77% 30.32 in 10.0 mi WNW 5.8 mph - N/A   Clear
7:55 PM 32.9 °F 28.5 °F 27.1 °F 79% 30.32 in 10.0 mi West 4.6 mph - N/A   Clear
8:14 PM 32.0 °F 27.5 °F 26.8 °F 81% 30.32 in 10.0 mi West 4.6 mph - N/A   Clear
8:34 PM 31.3 °F 26.6 °F 26.4 °F 82% 30.32 in 10.0 mi West 4.6 mph - N/A   Clear
8:55 PM 31.1 °F - 26.1 °F 82% 30.32 in 10.0 mi Calm Calm - N/A   Clear
9:14 PM 29.3 °F 24.3 °F 25.7 °F 86% 30.32 in 10.0 mi SW 4.6 mph - N/A   Clear
9:34 PM 30.2 °F 26.7 °F 26.4 °F 86% 30.32 in 10.0 mi SW 3.5 mph - N/A   Clear
9:54 PM 29.5 °F - 25.9 °F 86% 30.32 in 10.0 mi Calm Calm - N/A   Clear
10:14 PM 28.4 °F 23.3 °F 25.3 °F 88% 30.32 in 10.0 mi WSW 4.6 mph - N/A   Clear
10:34 PM 27.9 °F - 24.6 °F 88% 30.32 in 10.0 mi Calm Calm - N/A   Clear
10:54 PM 28.9 °F 23.9 °F 25.7 °F 88% 30.31 in 10.0 mi SW 4.6 mph - N/A   Clear
11:14 PM 27.5 °F 21.1 °F 24.8 °F 90% 30.30 in 10.0 mi SW 5.8 mph - N/A   Clear
11:34 PM 28.0 °F 22.8 °F 25.0 °F 88% 30.30 in 10.0 mi SW 4.6 mph - N/A   Clear
11:54 PM 29.3 °F 25.6 °F 25.7 °F 86% 30.29 in 10.0 mi SSW 3.5 mph - N/A   Clear